Coeur D'Alene - Pappy Boyington Field
KCOE : rendu visible

Aérodrome :











RETROUVEZ-NOUS SUR...

 
LOGIN :

S'inscrire | Disclaimer

   EN    FR    IT 

 









Légende :    VFR   VFR Marginal   IFR   IFR Intensif   IFR Très Intensif
Visi : 
Plafond : 
>= 8 km
>= 3000ft
5 à 8 km
1000 à 3000 ft
1500m à 5 km
500 à 1000 ft
800 à 1500m
200 à 500 ft
< 800m
< 200 ft
Symboles :   Orages  Brouillard  Fortes neiges  Fortes précipitations  Vent > 20 kt






- Altitude de l'aérodrome : 2320 ft


KCOE - Coeur D'Alene - Pappy Boyington Field

DERNIER METAR :
  • 271156Z AUTO 00000KT 10SM CLR M02/M03 A3037 RMK AO2 SLP321 T10171028 10011 21017 58005 FZRANO

METARs EXPIRÉS :
  • 271056Z AUTO 06005KT 10SM CLR M02/M03 A3037 RMK AO2 SLP320 T10171028 FZRANO
  • 270956Z AUTO 08003KT 10SM CLR M01/M03 A3039 RMK AO2 SLP327 T10061028 FZRANO
  • 270856Z AUTO 15008KT 10SM CLR 01/M01 A3039 RMK AO2 SLP325 T00061011 58006 FZRANO

TAF KCOE
Valide du 27 à 12h jusqu'au 28 à 12h UTC


271120Z 2712/2812 05006KT P6SM SCT120 OVC200
FM271500 04005KT P6SM SCT035 BKN200
FM272100 20004KT P6SM SCT070 BKN200
FM280300 15004KT P6SM SCT200



MET'MAP, la Météo Aéronautique d'un coup d'oeil ! - Copyright ORBIFLY Décembre 2007 - Disclaimer

ORBIFLY MET'MAP TEAM :

Programmation & Développement : Alexandra Zaïnal
Sur une idée originale de : Baudouin d'Aumeries
Assistance à la programmation : Marc-Olivier Méhu
Soutien technique & logistique : Manuel Goepfert

Contact : metmap@orbifly.com




SOURCES & CREDITS :

   NOAA       Earth
Advisory